sensor_id;sensor_type;location;lat;lon;timestamp;temperature;humidity
5128;DHT22;2582;48.770;9.190;2022-11-21T00:00:54;7.90;99.90
5128;DHT22;2582;48.770;9.190;2022-11-21T00:03:19;7.90;99.90
5128;DHT22;2582;48.770;9.190;2022-11-21T00:05:47;7.90;99.90
5128;DHT22;2582;48.770;9.190;2022-11-21T00:08:15;7.80;99.90
5128;DHT22;2582;48.770;9.190;2022-11-21T00:10:41;7.60;99.90
5128;DHT22;2582;48.770;9.190;2022-11-21T00:13:12;7.60;99.90
5128;DHT22;2582;48.770;9.190;2022-11-21T00:15:38;7.50;99.90
5128;DHT22;2582;48.770;9.190;2022-11-21T00:18:04;7.50;99.90
5128;DHT22;2582;48.770;9.190;2022-11-21T00:20:30;7.50;99.90
5128;DHT22;2582;48.770;9.190;2022-11-21T00:22:55;7.40;99.90
5128;DHT22;2582;48.770;9.190;2022-11-21T00:25:21;7.40;99.90
5128;DHT22;2582;48.770;9.190;2022-11-21T00:27:47;7.30;99.90
5128;DHT22;2582;48.770;9.190;2022-11-21T00:30:13;7.40;99.90
5128;DHT22;2582;48.770;9.190;2022-11-21T00:32:39;7.50;99.90
5128;DHT22;2582;48.770;9.190;2022-11-21T00:35:05;7.40;99.90
5128;DHT22;2582;48.770;9.190;2022-11-21T00:37:31;7.50;99.90
5128;DHT22;2582;48.770;9.190;2022-11-21T00:39:57;7.50;99.90
5128;DHT22;2582;48.770;9.190;2022-11-21T00:42:23;7.40;99.90
5128;DHT22;2582;48.770;9.190;2022-11-21T00:44:48;7.30;99.90
5128;DHT22;2582;48.770;9.190;2022-11-21T00:47:14;7.30;99.90
5128;DHT22;2582;48.770;9.190;2022-11-21T00:49:39;7.30;99.90
5128;DHT22;2582;48.770;9.190;2022-11-21T00:52:05;7.20;99.90
5128;DHT22;2582;48.770;9.190;2022-11-21T00:54:30;7.00;99.90
5128;DHT22;2582;48.770;9.190;2022-11-21T00:56:56;6.90;99.90
5128;DHT22;2582;48.770;9.190;2022-11-21T00:59:22;6.70;99.90
5128;DHT22;2582;48.770;9.190;2022-11-21T01:01:47;6.70;99.90
5128;DHT22;2582;48.770;9.190;2022-11-21T01:04:13;6.50;99.90
5128;DHT22;2582;48.770;9.190;2022-11-21T01:06:38;6.50;99.90
5128;DHT22;2582;48.770;9.190;2022-11-21T01:09:04;6.50;99.90
5128;DHT22;2582;48.770;9.190;2022-11-21T01:11:30;6.60;99.90
5128;DHT22;2582;48.770;9.190;2022-11-21T01:13:56;6.60;99.90
5128;DHT22;2582;48.770;9.190;2022-11-21T01:16:24;6.60;99.90
5128;DHT22;2582;48.770;9.190;2022-11-21T01:18:50;6.80;99.90
5128;DHT22;2582;48.770;9.190;2022-11-21T01:21:22;6.80;99.90
5128;DHT22;2582;48.770;9.190;2022-11-21T01:23:48;6.80;99.90
5128;DHT22;2582;48.770;9.190;2022-11-21T01:26:20;6.80;99.90
5128;DHT22;2582;48.770;9.190;2022-11-21T01:28:46;6.90;99.90
5128;DHT22;2582;48.770;9.190;2022-11-21T01:31:17;7.10;99.90
5128;DHT22;2582;48.770;9.190;2022-11-21T01:33:44;7.20;99.90
5128;DHT22;2582;48.770;9.190;2022-11-21T01:38:35;7.20;99.90
5128;DHT22;2582;48.770;9.190;2022-11-21T01:41:01;7.20;99.90
5128;DHT22;2582;48.770;9.190;2022-11-21T01:43:27;6.80;99.90
5128;DHT22;2582;48.770;9.190;2022-11-21T01:51:15;6.50;99.90
5128;DHT22;2582;48.770;9.190;2022-11-21T01:53:47;6.60;99.90
5128;DHT22;2582;48.770;9.190;2022-11-21T01:56:15;6.50;99.90
5128;DHT22;2582;48.770;9.190;2022-11-21T01:58:42;6.60;99.90
5128;DHT22;2582;48.770;9.190;2022-11-21T02:01:09;6.50;99.90
5128;DHT22;2582;48.770;9.190;2022-11-21T02:03:37;6.80;99.90
5128;DHT22;2582;48.770;9.190;2022-11-21T02:06:04;6.70;99.90
5128;DHT22;2582;48.770;9.190;2022-11-21T02:08:30;6.70;99.90
5128;DHT22;2582;48.770;9.190;2022-11-21T02:11:10;6.80;99.90
5128;DHT22;2582;48.770;9.190;2022-11-21T02:13:36;6.80;99.90
5128;DHT22;2582;48.770;9.190;2022-11-21T02:16:02;6.60;99.90
5128;DHT22;2582;48.770;9.190;2022-11-21T02:18:28;6.50;99.90
5128;DHT22;2582;48.770;9.190;2022-11-21T02:21:06;6.50;99.90
5128;DHT22;2582;48.770;9.190;2022-11-21T02:23:40;6.50;99.90
5128;DHT22;2582;48.770;9.190;2022-11-21T02:26:08;6.40;99.90
5128;DHT22;2582;48.770;9.190;2022-11-21T02:28:34;6.40;99.90
5128;DHT22;2582;48.770;9.190;2022-11-21T02:31:00;6.50;99.90
5128;DHT22;2582;48.770;9.190;2022-11-21T02:33:26;6.60;99.90
5128;DHT22;2582;48.770;9.190;2022-11-21T02:35:59;6.60;99.90
5128;DHT22;2582;48.770;9.190;2022-11-21T02:38:31;6.70;99.90
5128;DHT22;2582;48.770;9.190;2022-11-21T02:41:03;6.60;99.90
5128;DHT22;2582;48.770;9.190;2022-11-21T02:43:42;6.60;99.90
5128;DHT22;2582;48.770;9.190;2022-11-21T02:46:09;6.50;99.90
5128;DHT22;2582;48.770;9.190;2022-11-21T02:48:36;6.50;99.90
5128;DHT22;2582;48.770;9.190;2022-11-21T02:51:02;6.50;99.90
5128;DHT22;2582;48.770;9.190;2022-11-21T02:53:28;6.40;99.90
5128;DHT22;2582;48.770;9.190;2022-11-21T02:55:53;6.30;99.90
5128;DHT22;2582;48.770;9.190;2022-11-21T02:58:19;6.50;99.90
5128;DHT22;2582;48.770;9.190;2022-11-21T03:00:45;6.60;99.90
5128;DHT22;2582;48.770;9.190;2022-11-21T03:03:10;6.80;99.90
5128;DHT22;2582;48.770;9.190;2022-11-21T03:05:37;6.70;99.90
5128;DHT22;2582;48.770;9.190;2022-11-21T03:08:04;6.60;99.90
5128;DHT22;2582;48.770;9.190;2022-11-21T03:10:30;6.60;99.90
5128;DHT22;2582;48.770;9.190;2022-11-21T03:12:55;6.70;99.90
5128;DHT22;2582;48.770;9.190;2022-11-21T03:15:26;6.50;99.90
5128;DHT22;2582;48.770;9.190;2022-11-21T03:17:53;6.30;99.90
5128;DHT22;2582;48.770;9.190;2022-11-21T03:20:18;6.40;99.90
5128;DHT22;2582;48.770;9.190;2022-11-21T03:22:44;6.30;99.90
5128;DHT22;2582;48.770;9.190;2022-11-21T03:25:10;6.30;99.90
5128;DHT22;2582;48.770;9.190;2022-11-21T03:27:35;6.10;99.90
5128;DHT22;2582;48.770;9.190;2022-11-21T03:30:01;6.10;99.90
5128;DHT22;2582;48.770;9.190;2022-11-21T03:32:26;6.20;99.90
5128;DHT22;2582;48.770;9.190;2022-11-21T03:34:52;6.30;99.90
5128;DHT22;2582;48.770;9.190;2022-11-21T03:37:18;6.30;99.90
5128;DHT22;2582;48.770;9.190;2022-11-21T03:39:43;6.30;99.90
5128;DHT22;2582;48.770;9.190;2022-11-21T03:42:09;6.40;99.90
5128;DHT22;2582;48.770;9.190;2022-11-21T03:44:35;6.50;99.90
5128;DHT22;2582;48.770;9.190;2022-11-21T03:47:00;6.50;99.90
5128;DHT22;2582;48.770;9.190;2022-11-21T03:49:26;6.60;99.90
5128;DHT22;2582;48.770;9.190;2022-11-21T03:51:51;6.80;99.90
5128;DHT22;2582;48.770;9.190;2022-11-21T03:54:17;6.90;99.90
5128;DHT22;2582;48.770;9.190;2022-11-21T03:56:42;7.10;99.90
5128;DHT22;2582;48.770;9.190;2022-11-21T03:59:08;7.00;99.90
5128;DHT22;2582;48.770;9.190;2022-11-21T04:01:33;7.10;99.90
5128;DHT22;2582;48.770;9.190;2022-11-21T04:03:59;7.20;99.90
5128;DHT22;2582;48.770;9.190;2022-11-21T04:06:25;7.30;99.90
5128;DHT22;2582;48.770;9.190;2022-11-21T04:08:51;7.40;99.90
5128;DHT22;2582;48.770;9.190;2022-11-21T04:11:17;7.30;99.90
5128;DHT22;2582;48.770;9.190;2022-11-21T04:13:42;7.40;99.90
5128;DHT22;2582;48.770;9.190;2022-11-21T04:16:08;7.50;99.90
5128;DHT22;2582;48.770;9.190;2022-11-21T04:18:34;7.50;99.90
5128;DHT22;2582;48.770;9.190;2022-11-21T04:21:05;7.40;99.90
5128;DHT22;2582;48.770;9.190;2022-11-21T04:23:31;7.50;99.90
5128;DHT22;2582;48.770;9.190;2022-11-21T04:25:57;7.40;99.90
5128;DHT22;2582;48.770;9.190;2022-11-21T04:28:22;7.40;99.90
5128;DHT22;2582;48.770;9.190;2022-11-21T04:30:48;7.40;99.90
5128;DHT22;2582;48.770;9.190;2022-11-21T04:33:15;7.40;99.90
5128;DHT22;2582;48.770;9.190;2022-11-21T04:35:44;7.50;99.90
5128;DHT22;2582;48.770;9.190;2022-11-21T04:38:11;7.40;99.90
5128;DHT22;2582;48.770;9.190;2022-11-21T04:40:37;7.50;99.90
5128;DHT22;2582;48.770;9.190;2022-11-21T04:43:03;7.60;99.90
5128;DHT22;2582;48.770;9.190;2022-11-21T04:45:30;7.50;99.90
5128;DHT22;2582;48.770;9.190;2022-11-21T04:47:56;7.50;99.90
5128;DHT22;2582;48.770;9.190;2022-11-21T04:50:22;7.50;99.90
5128;DHT22;2582;48.770;9.190;2022-11-21T04:52:52;7.60;99.90
5128;DHT22;2582;48.770;9.190;2022-11-21T04:55:18;7.50;99.90
5128;DHT22;2582;48.770;9.190;2022-11-21T04:57:44;7.50;99.90
5128;DHT22;2582;48.770;9.190;2022-11-21T05:00:11;7.40;99.90
5128;DHT22;2582;48.770;9.190;2022-11-21T05:02:37;7.40;99.90
5128;DHT22;2582;48.770;9.190;2022-11-21T05:05:03;7.30;99.90
5128;DHT22;2582;48.770;9.190;2022-11-21T05:07:29;7.30;99.90
5128;DHT22;2582;48.770;9.190;2022-11-21T05:09:54;7.20;99.90
5128;DHT22;2582;48.770;9.190;2022-11-21T05:12:20;7.10;99.90
5128;DHT22;2582;48.770;9.190;2022-11-21T05:15:04;7.10;99.90
5128;DHT22;2582;48.770;9.190;2022-11-21T05:17:29;7.20;99.90
5128;DHT22;2582;48.770;9.190;2022-11-21T05:19:55;7.30;99.90
5128;DHT22;2582;48.770;9.190;2022-11-21T05:22:21;7.20;99.90
5128;DHT22;2582;48.770;9.190;2022-11-21T05:24:46;7.10;99.90
5128;DHT22;2582;48.770;9.190;2022-11-21T05:27:12;7.10;99.90
5128;DHT22;2582;48.770;9.190;2022-11-21T05:29:37;7.10;99.90
5128;DHT22;2582;48.770;9.190;2022-11-21T05:32:03;7.00;99.90
5128;DHT22;2582;48.770;9.190;2022-11-21T05:34:29;7.00;99.90
5128;DHT22;2582;48.770;9.190;2022-11-21T05:36:54;7.00;99.90
5128;DHT22;2582;48.770;9.190;2022-11-21T05:39:23;6.90;99.90
5128;DHT22;2582;48.770;9.190;2022-11-21T05:41:49;7.10;99.90
5128;DHT22;2582;48.770;9.190;2022-11-21T05:44:15;7.10;99.90
5128;DHT22;2582;48.770;9.190;2022-11-21T05:46:40;7.00;99.90
5128;DHT22;2582;48.770;9.190;2022-11-21T05:49:06;7.10;99.90
5128;DHT22;2582;48.770;9.190;2022-11-21T05:51:32;7.10;99.90
5128;DHT22;2582;48.770;9.190;2022-11-21T05:53:58;7.20;99.90
5128;DHT22;2582;48.770;9.190;2022-11-21T05:56:24;7.20;99.90
5128;DHT22;2582;48.770;9.190;2022-11-21T05:58:50;7.20;99.90
5128;DHT22;2582;48.770;9.190;2022-11-21T06:01:16;7.10;99.90
5128;DHT22;2582;48.770;9.190;2022-11-21T06:04:01;7.10;99.90
5128;DHT22;2582;48.770;9.190;2022-11-21T06:06:27;7.30;99.90
5128;DHT22;2582;48.770;9.190;2022-11-21T06:08:53;7.20;99.90
5128;DHT22;2582;48.770;9.190;2022-11-21T06:11:18;7.20;99.90
5128;DHT22;2582;48.770;9.190;2022-11-21T06:13:44;7.20;99.90
5128;DHT22;2582;48.770;9.190;2022-11-21T06:16:12;7.30;99.90
5128;DHT22;2582;48.770;9.190;2022-11-21T06:18:39;7.30;99.90
5128;DHT22;2582;48.770;9.190;2022-11-21T06:21:32;7.50;99.90
5128;DHT22;2582;48.770;9.190;2022-11-21T06:23:59;7.50;99.90
5128;DHT22;2582;48.770;9.190;2022-11-21T06:26:26;7.70;99.90
5128;DHT22;2582;48.770;9.190;2022-11-21T06:28:53;7.80;99.90
5128;DHT22;2582;48.770;9.190;2022-11-21T06:31:21;7.90;99.90
5128;DHT22;2582;48.770;9.190;2022-11-21T06:33:54;8.00;99.90
5128;DHT22;2582;48.770;9.190;2022-11-21T06:36:20;8.00;99.90
5128;DHT22;2582;48.770;9.190;2022-11-21T06:38:46;8.00;99.90
5128;DHT22;2582;48.770;9.190;2022-11-21T06:41:17;8.20;99.90
5128;DHT22;2582;48.770;9.190;2022-11-21T06:43:43;8.20;99.90
5128;DHT22;2582;48.770;9.190;2022-11-21T06:46:09;8.20;99.90
5128;DHT22;2582;48.770;9.190;2022-11-21T06:48:36;8.10;99.90
5128;DHT22;2582;48.770;9.190;2022-11-21T06:51:18;7.80;99.90
5128;DHT22;2582;48.770;9.190;2022-11-21T06:53:44;7.60;99.90
5128;DHT22;2582;48.770;9.190;2022-11-21T06:56:10;7.50;99.90
5128;DHT22;2582;48.770;9.190;2022-11-21T06:58:36;7.30;99.90
5128;DHT22;2582;48.770;9.190;2022-11-21T07:01:06;7.20;99.90
5128;DHT22;2582;48.770;9.190;2022-11-21T07:03:33;7.10;99.90
5128;DHT22;2582;48.770;9.190;2022-11-21T07:06:00;6.90;99.90
5128;DHT22;2582;48.770;9.190;2022-11-21T07:08:27;6.80;99.90
5128;DHT22;2582;48.770;9.190;2022-11-21T07:10:53;6.80;99.90
5128;DHT22;2582;48.770;9.190;2022-11-21T07:13:19;6.60;99.90
5128;DHT22;2582;48.770;9.190;2022-11-21T07:15:52;6.70;99.90
5128;DHT22;2582;48.770;9.190;2022-11-21T07:18:19;6.60;99.90
5128;DHT22;2582;48.770;9.190;2022-11-21T07:20:45;6.60;99.90
5128;DHT22;2582;48.770;9.190;2022-11-21T07:23:11;6.50;99.90
5128;DHT22;2582;48.770;9.190;2022-11-21T07:25:37;6.60;99.90
5128;DHT22;2582;48.770;9.190;2022-11-21T07:28:05;6.70;99.90
5128;DHT22;2582;48.770;9.190;2022-11-21T07:30:32;6.70;99.90
5128;DHT22;2582;48.770;9.190;2022-11-21T07:32:59;6.70;99.90
5128;DHT22;2582;48.770;9.190;2022-11-21T07:35:25;6.70;99.90
5128;DHT22;2582;48.770;9.190;2022-11-21T07:37:51;6.70;99.90
5128;DHT22;2582;48.770;9.190;2022-11-21T07:40:17;6.60;99.90
5128;DHT22;2582;48.770;9.190;2022-11-21T07:42:43;6.70;99.90
5128;DHT22;2582;48.770;9.190;2022-11-21T07:45:09;6.70;99.90
5128;DHT22;2582;48.770;9.190;2022-11-21T07:47:35;6.70;99.90
5128;DHT22;2582;48.770;9.190;2022-11-21T07:50:01;6.50;99.90
5128;DHT22;2582;48.770;9.190;2022-11-21T07:52:27;6.60;99.90
5128;DHT22;2582;48.770;9.190;2022-11-21T07:54:55;6.70;99.90
5128;DHT22;2582;48.770;9.190;2022-11-21T07:57:20;6.60;99.90
5128;DHT22;2582;48.770;9.190;2022-11-21T07:59:46;6.80;99.90
5128;DHT22;2582;48.770;9.190;2022-11-21T08:02:25;6.80;99.90
5128;DHT22;2582;48.770;9.190;2022-11-21T08:04:52;6.90;99.90
5128;DHT22;2582;48.770;9.190;2022-11-21T08:07:18;6.90;99.90
5128;DHT22;2582;48.770;9.190;2022-11-21T08:09:44;6.80;99.90
5128;DHT22;2582;48.770;9.190;2022-11-21T08:12:11;6.70;99.90
5128;DHT22;2582;48.770;9.190;2022-11-21T08:14:36;6.90;99.90
5128;DHT22;2582;48.770;9.190;2022-11-21T08:17:03;7.00;99.90
5128;DHT22;2582;48.770;9.190;2022-11-21T08:19:29;7.00;99.90
5128;DHT22;2582;48.770;9.190;2022-11-21T08:21:55;7.20;99.90
5128;DHT22;2582;48.770;9.190;2022-11-21T08:24:20;7.20;99.90
5128;DHT22;2582;48.770;9.190;2022-11-21T08:26:46;7.30;99.90
5128;DHT22;2582;48.770;9.190;2022-11-21T08:29:12;7.40;99.90
5128;DHT22;2582;48.770;9.190;2022-11-21T08:31:40;7.50;99.90
5128;DHT22;2582;48.770;9.190;2022-11-21T08:34:06;7.60;99.90
5128;DHT22;2582;48.770;9.190;2022-11-21T08:36:31;7.60;99.90
5128;DHT22;2582;48.770;9.190;2022-11-21T08:38:57;7.60;99.90
5128;DHT22;2582;48.770;9.190;2022-11-21T08:41:23;7.60;99.90
5128;DHT22;2582;48.770;9.190;2022-11-21T08:44:06;7.80;99.90
5128;DHT22;2582;48.770;9.190;2022-11-21T08:46:33;7.80;99.90
5128;DHT22;2582;48.770;9.190;2022-11-21T08:49:05;7.70;99.90
5128;DHT22;2582;48.770;9.190;2022-11-21T08:51:31;7.80;99.90
5128;DHT22;2582;48.770;9.190;2022-11-21T08:53:57;7.90;99.90
5128;DHT22;2582;48.770;9.190;2022-11-21T08:56:22;7.90;99.90
5128;DHT22;2582;48.770;9.190;2022-11-21T08:58:48;7.80;99.90
5128;DHT22;2582;48.770;9.190;2022-11-21T09:01:14;7.70;99.90
5128;DHT22;2582;48.770;9.190;2022-11-21T09:03:40;7.80;99.90
5128;DHT22;2582;48.770;9.190;2022-11-21T09:06:06;7.90;99.90
5128;DHT22;2582;48.770;9.190;2022-11-21T09:08:31;8.00;99.90
5128;DHT22;2582;48.770;9.190;2022-11-21T09:10:57;7.90;99.90
5128;DHT22;2582;48.770;9.190;2022-11-21T09:13:23;8.00;99.90
5128;DHT22;2582;48.770;9.190;2022-11-21T09:15:49;8.30;99.90
5128;DHT22;2582;48.770;9.190;2022-11-21T09:18:33;8.50;99.90
5128;DHT22;2582;48.770;9.190;2022-11-21T09:20:58;8.60;99.90
5128;DHT22;2582;48.770;9.190;2022-11-21T09:23:24;8.70;99.90
5128;DHT22;2582;48.770;9.190;2022-11-21T09:25:50;8.80;99.90
5128;DHT22;2582;48.770;9.190;2022-11-21T09:28:16;8.70;99.90
5128;DHT22;2582;48.770;9.190;2022-11-21T09:30:42;8.80;99.90
5128;DHT22;2582;48.770;9.190;2022-11-21T09:33:11;8.80;99.90
5128;DHT22;2582;48.770;9.190;2022-11-21T09:35:37;9.00;99.90
5128;DHT22;2582;48.770;9.190;2022-11-21T09:38:03;9.10;99.90
5128;DHT22;2582;48.770;9.190;2022-11-21T09:40:30;9.20;99.90
5128;DHT22;2582;48.770;9.190;2022-11-21T09:45:44;8.90;99.90
5128;DHT22;2582;48.770;9.190;2022-11-21T09:48:19;9.10;99.90
5128;DHT22;2582;48.770;9.190;2022-11-21T09:50:50;9.40;99.90
5128;DHT22;2582;48.770;9.190;2022-11-21T09:53:22;9.70;99.90
5128;DHT22;2582;48.770;9.190;2022-11-21T09:58:24;9.30;99.90
5128;DHT22;2582;48.770;9.190;2022-11-21T10:00:52;9.30;99.90
5128;DHT22;2582;48.770;9.190;2022-11-21T10:03:20;9.10;99.90
5128;DHT22;2582;48.770;9.190;2022-11-21T10:06:00;9.10;99.90
5128;DHT22;2582;48.770;9.190;2022-11-21T10:14:02;9.40;99.90
5128;DHT22;2582;48.770;9.190;2022-11-21T10:16:48;9.70;99.90
5128;DHT22;2582;48.770;9.190;2022-11-21T10:24:39;10.10;99.90
5128;DHT22;2582;48.770;9.190;2022-11-21T10:27:31;10.00;99.90
5128;DHT22;2582;48.770;9.190;2022-11-21T10:30:03;10.10;99.90
5128;DHT22;2582;48.770;9.190;2022-11-21T10:32:52;10.10;99.90
5128;DHT22;2582;48.770;9.190;2022-11-21T10:35:29;10.30;99.90
5128;DHT22;2582;48.770;9.190;2022-11-21T10:38:00;9.90;99.90
5128;DHT22;2582;48.770;9.190;2022-11-21T10:40:38;9.70;99.90
5128;DHT22;2582;48.770;9.190;2022-11-21T10:43:21;9.90;99.90
5128;DHT22;2582;48.770;9.190;2022-11-21T10:46:08;10.20;99.90
5128;DHT22;2582;48.770;9.190;2022-11-21T10:48:33;10.20;99.90
5128;DHT22;2582;48.770;9.190;2022-11-21T10:51:16;11.10;99.90
5128;DHT22;2582;48.770;9.190;2022-11-21T10:53:47;11.60;99.90
5128;DHT22;2582;48.770;9.190;2022-11-21T10:56:45;12.00;99.90
5128;DHT22;2582;48.770;9.190;2022-11-21T10:59:17;13.90;99.90
5128;DHT22;2582;48.770;9.190;2022-11-21T11:01:54;15.30;99.90
5128;DHT22;2582;48.770;9.190;2022-11-21T11:04:20;16.30;99.90
5128;DHT22;2582;48.770;9.190;2022-11-21T11:06:47;16.00;98.60
5128;DHT22;2582;48.770;9.190;2022-11-21T11:09:28;14.40;99.90
5128;DHT22;2582;48.770;9.190;2022-11-21T11:12:23;13.60;99.90
5128;DHT22;2582;48.770;9.190;2022-11-21T11:14:51;14.10;99.90
5128;DHT22;2582;48.770;9.190;2022-11-21T11:17:28;14.60;99.90
5128;DHT22;2582;48.770;9.190;2022-11-21T11:20:04;13.80;99.90
5128;DHT22;2582;48.770;9.190;2022-11-21T11:22:30;13.50;99.90
5128;DHT22;2582;48.770;9.190;2022-11-21T11:24:56;13.10;99.90
5128;DHT22;2582;48.770;9.190;2022-11-21T11:27:28;13.40;99.90
5128;DHT22;2582;48.770;9.190;2022-11-21T11:29:54;13.70;99.90
5128;DHT22;2582;48.770;9.190;2022-11-21T11:32:20;14.40;99.90
5128;DHT22;2582;48.770;9.190;2022-11-21T11:34:57;14.70;98.30
5128;DHT22;2582;48.770;9.190;2022-11-21T11:37:42;14.20;97.90
5128;DHT22;2582;48.770;9.190;2022-11-21T11:40:39;14.70;98.30
5128;DHT22;2582;48.770;9.190;2022-11-21T11:43:16;15.00;98.20
5128;DHT22;2582;48.770;9.190;2022-11-21T11:49:21;17.30;95.20
5128;DHT22;2582;48.770;9.190;2022-11-21T11:51:57;16.50;96.00
5128;DHT22;2582;48.770;9.190;2022-11-21T11:54:33;14.80;96.90
5128;DHT22;2582;48.770;9.190;2022-11-21T11:56:59;13.50;98.50
5128;DHT22;2582;48.770;9.190;2022-11-21T11:59:30;13.10;99.20
5128;DHT22;2582;48.770;9.190;2022-11-21T12:02:28;13.70;99.30
5128;DHT22;2582;48.770;9.190;2022-11-21T12:05:13;16.00;96.00
5128;DHT22;2582;48.770;9.190;2022-11-21T12:07:49;17.70;94.10
5128;DHT22;2582;48.770;9.190;2022-11-21T12:10:50;18.50;91.60
5128;DHT22;2582;48.770;9.190;2022-11-21T12:13:36;19.00;91.10
5128;DHT22;2582;48.770;9.190;2022-11-21T12:16:07;18.90;89.70
5128;DHT22;2582;48.770;9.190;2022-11-21T12:19:02;18.70;91.20
5128;DHT22;2582;48.770;9.190;2022-11-21T12:21:30;17.60;90.50
5128;DHT22;2582;48.770;9.190;2022-11-21T12:24:01;16.40;91.50
5128;DHT22;2582;48.770;9.190;2022-11-21T12:38:01;13.30;97.80
5128;DHT22;2582;48.770;9.190;2022-11-21T12:44:06;13.40;98.90
5128;DHT22;2582;48.770;9.190;2022-11-21T12:52:31;13.70;99.40
5128;DHT22;2582;48.770;9.190;2022-11-21T12:55:38;13.60;99.10
5128;DHT22;2582;48.770;9.190;2022-11-21T12:58:08;13.60;98.70
5128;DHT22;2582;48.770;9.190;2022-11-21T13:01:00;13.40;98.70
5128;DHT22;2582;48.770;9.190;2022-11-21T13:06:26;13.10;99.00
5128;DHT22;2582;48.770;9.190;2022-11-21T13:08:53;12.50;99.40
5128;DHT22;2582;48.770;9.190;2022-11-21T13:14:39;12.40;99.90
5128;DHT22;2582;48.770;9.190;2022-11-21T13:17:33;12.80;99.90
5128;DHT22;2582;48.770;9.190;2022-11-21T13:25:34;12.60;99.90
5128;DHT22;2582;48.770;9.190;2022-11-21T13:36:04;13.40;99.20
5128;DHT22;2582;48.770;9.190;2022-11-21T13:38:31;13.50;98.80
5128;DHT22;2582;48.770;9.190;2022-11-21T13:40:57;13.40;99.60
5128;DHT22;2582;48.770;9.190;2022-11-21T13:43:41;13.20;99.50
5128;DHT22;2582;48.770;9.190;2022-11-21T13:46:07;13.40;99.30
5128;DHT22;2582;48.770;9.190;2022-11-21T13:48:36;13.20;98.70
5128;DHT22;2582;48.770;9.190;2022-11-21T13:54:03;13.00;99.50
5128;DHT22;2582;48.770;9.190;2022-11-21T13:56:59;12.90;99.80
5128;DHT22;2582;48.770;9.190;2022-11-21T14:07:25;12.60;99.90
5128;DHT22;2582;48.770;9.190;2022-11-21T14:09:52;12.60;99.90
5128;DHT22;2582;48.770;9.190;2022-11-21T14:26:39;12.40;99.20
5128;DHT22;2582;48.770;9.190;2022-11-21T14:29:25;13.20;99.60
5128;DHT22;2582;48.770;9.190;2022-11-21T14:31:51;13.10;99.90
5128;DHT22;2582;48.770;9.190;2022-11-21T14:34:25;12.70;99.90
5128;DHT22;2582;48.770;9.190;2022-11-21T14:36:51;12.60;99.90
5128;DHT22;2582;48.770;9.190;2022-11-21T14:39:18;12.40;99.90
5128;DHT22;2582;48.770;9.190;2022-11-21T14:41:50;12.10;99.90
5128;DHT22;2582;48.770;9.190;2022-11-21T14:44:18;12.10;99.90
5128;DHT22;2582;48.770;9.190;2022-11-21T14:46:45;12.00;99.90
5128;DHT22;2582;48.770;9.190;2022-11-21T14:51:37;11.90;99.90
5128;DHT22;2582;48.770;9.190;2022-11-21T14:54:04;11.70;99.90
5128;DHT22;2582;48.770;9.190;2022-11-21T14:56:36;11.60;99.90
5128;DHT22;2582;48.770;9.190;2022-11-21T14:59:03;11.40;99.90
5128;DHT22;2582;48.770;9.190;2022-11-21T15:01:31;11.20;99.90
5128;DHT22;2582;48.770;9.190;2022-11-21T15:04:01;11.00;99.90
5128;DHT22;2582;48.770;9.190;2022-11-21T15:06:29;10.80;99.90
5128;DHT22;2582;48.770;9.190;2022-11-21T15:08:58;10.80;99.90
5128;DHT22;2582;48.770;9.190;2022-11-21T15:11:52;10.60;99.90
5128;DHT22;2582;48.770;9.190;2022-11-21T15:14:29;10.60;99.90
5128;DHT22;2582;48.770;9.190;2022-11-21T15:16:56;10.50;99.90
5128;DHT22;2582;48.770;9.190;2022-11-21T15:19:26;10.30;99.90
5128;DHT22;2582;48.770;9.190;2022-11-21T15:21:55;10.20;99.90
5128;DHT22;2582;48.770;9.190;2022-11-21T15:24:37;10.00;99.90
5128;DHT22;2582;48.770;9.190;2022-11-21T15:27:45;10.00;99.90
5128;DHT22;2582;48.770;9.190;2022-11-21T15:38:02;9.70;99.90
5128;DHT22;2582;48.770;9.190;2022-11-21T15:40:27;9.70;99.90
5128;DHT22;2582;48.770;9.190;2022-11-21T15:42:53;9.70;99.90
5128;DHT22;2582;48.770;9.190;2022-11-21T15:45:24;9.60;99.90
5128;DHT22;2582;48.770;9.190;2022-11-21T15:47:51;9.40;99.90
5128;DHT22;2582;48.770;9.190;2022-11-21T15:50:17;9.30;99.90
5128;DHT22;2582;48.770;9.190;2022-11-21T15:52:47;9.10;99.90
5128;DHT22;2582;48.770;9.190;2022-11-21T15:55:21;9.00;99.90
5128;DHT22;2582;48.770;9.190;2022-11-21T15:57:49;8.80;99.90
5128;DHT22;2582;48.770;9.190;2022-11-21T16:00:15;8.70;99.90
5128;DHT22;2582;48.770;9.190;2022-11-21T16:02:41;8.50;99.90
5128;DHT22;2582;48.770;9.190;2022-11-21T16:05:11;8.40;99.90
5128;DHT22;2582;48.770;9.190;2022-11-21T16:07:37;8.30;99.90
5128;DHT22;2582;48.770;9.190;2022-11-21T16:10:03;8.30;99.90
5128;DHT22;2582;48.770;9.190;2022-11-21T16:12:29;8.30;99.90
5128;DHT22;2582;48.770;9.190;2022-11-21T16:14:54;8.30;99.90
5128;DHT22;2582;48.770;9.190;2022-11-21T16:17:20;8.30;99.90
5128;DHT22;2582;48.770;9.190;2022-11-21T16:19:45;8.20;99.90
5128;DHT22;2582;48.770;9.190;2022-11-21T16:22:11;8.20;99.90
5128;DHT22;2582;48.770;9.190;2022-11-21T16:24:37;8.20;99.90
5128;DHT22;2582;48.770;9.190;2022-11-21T16:27:02;8.00;99.90
5128;DHT22;2582;48.770;9.190;2022-11-21T16:29:28;7.90;99.90
5128;DHT22;2582;48.770;9.190;2022-11-21T16:31:54;7.90;99.90
5128;DHT22;2582;48.770;9.190;2022-11-21T16:34:20;7.80;99.90
5128;DHT22;2582;48.770;9.190;2022-11-21T16:36:47;7.80;99.90
5128;DHT22;2582;48.770;9.190;2022-11-21T16:39:12;7.70;99.90
5128;DHT22;2582;48.770;9.190;2022-11-21T16:41:38;7.60;99.90
5128;DHT22;2582;48.770;9.190;2022-11-21T16:44:10;7.50;99.90
5128;DHT22;2582;48.770;9.190;2022-11-21T16:46:44;7.50;99.90
5128;DHT22;2582;48.770;9.190;2022-11-21T16:49:11;7.40;99.90
5128;DHT22;2582;48.770;9.190;2022-11-21T16:51:36;7.40;99.90
5128;DHT22;2582;48.770;9.190;2022-11-21T16:54:02;7.30;99.90
5128;DHT22;2582;48.770;9.190;2022-11-21T16:56:28;7.20;99.90
5128;DHT22;2582;48.770;9.190;2022-11-21T16:58:53;7.30;99.90
5128;DHT22;2582;48.770;9.190;2022-11-21T17:01:24;7.30;99.90
5128;DHT22;2582;48.770;9.190;2022-11-21T17:03:51;7.20;99.90
5128;DHT22;2582;48.770;9.190;2022-11-21T17:06:22;7.30;99.90
5128;DHT22;2582;48.770;9.190;2022-11-21T17:08:48;7.10;99.90
5128;DHT22;2582;48.770;9.190;2022-11-21T17:11:14;7.00;99.90
5128;DHT22;2582;48.770;9.190;2022-11-21T17:13:41;6.90;99.90
5128;DHT22;2582;48.770;9.190;2022-11-21T17:16:08;6.90;99.90
5128;DHT22;2582;48.770;9.190;2022-11-21T17:18:34;7.00;99.90
5128;DHT22;2582;48.770;9.190;2022-11-21T17:21:08;7.00;99.90
5128;DHT22;2582;48.770;9.190;2022-11-21T17:23:36;6.90;99.90
5128;DHT22;2582;48.770;9.190;2022-11-21T17:26:03;6.80;99.90
5128;DHT22;2582;48.770;9.190;2022-11-21T17:28:29;7.00;99.90
5128;DHT22;2582;48.770;9.190;2022-11-21T17:30:55;7.10;99.90
5128;DHT22;2582;48.770;9.190;2022-11-21T17:33:20;6.90;99.90
5128;DHT22;2582;48.770;9.190;2022-11-21T17:35:46;7.00;99.90
5128;DHT22;2582;48.770;9.190;2022-11-21T17:38:12;7.30;99.90
5128;DHT22;2582;48.770;9.190;2022-11-21T17:40:38;7.40;99.90
5128;DHT22;2582;48.770;9.190;2022-11-21T17:43:03;7.50;99.90
5128;DHT22;2582;48.770;9.190;2022-11-21T17:45:29;7.40;99.90
5128;DHT22;2582;48.770;9.190;2022-11-21T17:47:54;7.20;99.90
5128;DHT22;2582;48.770;9.190;2022-11-21T17:50:20;7.00;99.90
5128;DHT22;2582;48.770;9.190;2022-11-21T17:52:46;7.10;99.90
5128;DHT22;2582;48.770;9.190;2022-11-21T17:55:11;7.20;99.90
5128;DHT22;2582;48.770;9.190;2022-11-21T17:57:37;7.40;99.90
5128;DHT22;2582;48.770;9.190;2022-11-21T18:00:04;7.50;99.90
5128;DHT22;2582;48.770;9.190;2022-11-21T18:02:30;7.40;99.90
5128;DHT22;2582;48.770;9.190;2022-11-21T18:04:56;7.60;99.90
5128;DHT22;2582;48.770;9.190;2022-11-21T18:07:21;7.60;99.90
5128;DHT22;2582;48.770;9.190;2022-11-21T18:09:47;7.50;99.90